Enshi, China
Current Conditions -  °F | °C
As of 4:00 PM on Friday 24 Oct 2014 (Local Time) from ZUCK Reporting Station
Few Clouds Few Clouds  
Wind Chill: 77°   Ceiling: Unl
Heat Index: 79°   Visibility: 4mi
Dew Point: 61°   Wind: 4mph
Humidity: 57%   Direction: 230°SW
Pressure: 29.97"   Gusts: NA
Location:  30.28°N, 109.47°E
Report Text: ZUCK 240800Z 23002MPS 170V290 7000 FEW026 25/16 Q1015 NOSIG
Loading
Personal Weather Stations






























Interactive Weather Map
Tropical Storm Tracking
New forecast layout! Learn more

10-Day Weather Forecast

Advertisements
Track Severe Weather on mobile